Time;durP1;ratioP1;P1;durP2;ratioP2;P2;SDS_P1;SDS_P2;PMS_P1;PMS_P2;Temp;Humidity;BMP_temperature;BMP_pressure;BME280_temperature;BME280_humidity;BME280_pressure;Samples;Min_cycle;Max_cycle;Signal;HPM_P1;HPM_P2
2023/12/29 00:00:55;;;;;;;;;;;3.50;99.90;;;;;;5073835;28;19924;-70
2023/12/29 00:03:21;;;;;;;;;;;3.50;99.90;;;;;;5074064;28;19932;-70
2023/12/29 00:05:48;;;;;;;;;;;3.50;99.90;;;;;;5073993;28;19925;-71
2023/12/29 00:08:16;;;;;;;;;;;3.40;99.90;;;;;;5073883;28;19931;-71
2023/12/29 00:10:43;;;;;;;;;;;3.40;99.90;;;;;;5074426;28;19928;-72
2023/12/29 00:13:09;;;;;;;;;;;3.40;99.90;;;;;;5075064;28;20435;-72
2023/12/29 00:15:36;;;;;;;;;;;3.30;99.90;;;;;;5075100;28;19931;-72
2023/12/29 00:18:03;;;;;;;;;;;3.30;99.90;;;;;;5074833;28;19928;-71
2023/12/29 00:20:30;;;;;;;;;;;3.30;99.90;;;;;;5074571;28;19924;-71
2023/12/29 00:22:58;;;;;;;;;;;3.30;99.90;;;;;;5074751;28;19931;-70
2023/12/29 00:25:26;;;;;;;;;;;3.30;99.90;;;;;;5073824;28;19924;-70
2023/12/29 00:27:53;;;;;;;;;;;3.40;99.90;;;;;;5073603;28;19933;-71
2023/12/29 00:30:20;;;;;;;;;;;3.40;99.90;;;;;;5073215;28;20297;-72
2023/12/29 00:32:47;;;;;;;;;;;3.40;99.90;;;;;;5074355;28;19931;-72
2023/12/29 00:35:13;;;;;;;;;;;3.40;99.90;;;;;;5073958;28;19925;-72
2023/12/29 00:37:40;;;;;;;;;;;3.40;99.90;;;;;;5073966;28;19932;-71
2023/12/29 00:40:07;;;;;;;;;;;3.40;99.90;;;;;;5074076;28;19924;-71
2023/12/29 00:42:35;;;;;;;;;;;3.50;99.90;;;;;;5073545;28;19932;-72
2023/12/29 00:45:01;;;;;;;;;;;3.50;99.90;;;;;;5073645;28;19943;-71
2023/12/29 00:47:28;;;;;;;;;;;3.50;99.90;;;;;;5073728;28;19925;-70
2023/12/29 00:49:55;;;;;;;;;;;3.50;99.90;;;;;;5073503;28;19924;-70
2023/12/29 00:52:21;;;;;;;;;;;3.50;99.90;;;;;;5073157;28;20452;-70
2023/12/29 00:54:48;;;;;;;;;;;3.60;99.90;;;;;;5073699;28;19925;-70
2023/12/29 00:57:14;;;;;;;;;;;3.60;99.90;;;;;;5076600;28;19929;-70
2023/12/29 00:59:43;;;;;;;;;;;3.60;99.90;;;;;;5077224;28;19928;-71
2023/12/29 01:02:10;;;;;;;;;;;3.60;99.90;;;;;;5077147;28;19924;-71
2023/12/29 01:04:38;;;;;;;;;;;3.60;99.90;;;;;;5077155;28;19983;-71
2023/12/29 01:07:04;;;;;;;;;;;3.60;99.90;;;;;;5077694;28;20019;-71
2023/12/29 01:09:31;;;;;;;;;;;3.60;99.90;;;;;;5076937;28;19925;-70
2023/12/29 01:11:57;;;;;;;;;;;3.60;99.90;;;;;;5077041;28;19925;-71
2023/12/29 01:14:24;;;;;;;;;;;3.50;99.90;;;;;;5077030;28;19924;-71
2023/12/29 01:16:52;;;;;;;;;;;3.50;99.90;;;;;;5077241;28;19924;-71
2023/12/29 01:19:18;;;;;;;;;;;3.50;99.90;;;;;;5081332;28;19932;-70
2023/12/29 01:21:45;;;;;;;;;;;3.40;99.90;;;;;;5077760;28;19931;-71
2023/12/29 01:24:11;;;;;;;;;;;3.40;99.90;;;;;;5077534;28;19924;-70
2023/12/29 01:26:38;;;;;;;;;;;3.30;99.90;;;;;;5077126;28;19924;-70
2023/12/29 01:29:05;;;;;;;;;;;3.30;99.90;;;;;;5077169;28;20031;-72
2023/12/29 01:31:32;;;;;;;;;;;3.30;99.90;;;;;;5076584;28;20313;-72
2023/12/29 01:33:59;;;;;;;;;;;3.30;99.90;;;;;;5076437;28;19928;-71
2023/12/29 01:36:26;;;;;;;;;;;3.40;99.90;;;;;;5076716;28;19925;-71
2023/12/29 01:38:53;;;;;;;;;;;3.40;99.90;;;;;;5076529;28;19928;-72
2023/12/29 01:41:20;;;;;;;;;;;3.40;99.90;;;;;;5076982;28;19928;-72
2023/12/29 01:44:05;;;;;;;;;;;3.50;99.90;;;;;;5076405;28;19924;-72
2023/12/29 01:46:34;;;;;;;;;;;3.50;99.90;;;;;;5076318;28;19947;-71
2023/12/29 01:49:02;;;;;;;;;;;3.50;99.90;;;;;;5076198;28;19931;-71
2023/12/29 01:51:30;;;;;;;;;;;3.50;99.90;;;;;;5075926;28;19924;-71
2023/12/29 01:53:57;;;;;;;;;;;3.50;99.90;;;;;;5076364;28;19931;-71
2023/12/29 01:56:24;;;;;;;;;;;3.50;99.90;;;;;;5076251;28;19925;-71
2023/12/29 01:58:52;;;;;;;;;;;3.60;99.90;;;;;;5076435;28;19924;-68
2023/12/29 02:01:19;;;;;;;;;;;3.60;99.90;;;;;;5075968;28;20002;-68
2023/12/29 02:03:46;;;;;;;;;;;3.60;99.90;;;;;;5076056;28;19947;-69
2023/12/29 02:06:14;;;;;;;;;;;3.70;99.90;;;;;;5075658;28;19935;-69
2023/12/29 02:08:41;;;;;;;;;;;3.70;99.90;;;;;;5076785;28;19925;-69
2023/12/29 02:11:08;;;;;;;;;;;3.70;99.90;;;;;;5075765;28;19931;-69
2023/12/29 02:13:34;;;;;;;;;;;3.70;99.90;;;;;;5075502;28;20409;-70
2023/12/29 02:16:04;;;;;;;;;;;3.70;99.90;;;;;;5075475;28;20386;-69
2023/12/29 02:18:31;;;;;;;;;;;3.70;99.90;;;;;;5075878;28;19932;-69
2023/12/29 02:20:57;;;;;;;;;;;3.70;99.90;;;;;;5075825;28;19947;-69
2023/12/29 02:23:25;;;;;;;;;;;3.70;99.90;;;;;;5075488;28;20405;-70
2023/12/29 02:25:56;;;;;;;;;;;3.70;99.90;;;;;;5075735;28;19924;-71
2023/12/29 02:28:25;;;;;;;;;;;3.70;99.90;;;;;;5075979;28;19935;-71
2023/12/29 02:30:55;;;;;;;;;;;3.70;99.90;;;;;;5075722;28;19925;-71
2023/12/29 02:33:23;;;;;;;;;;;3.70;99.90;;;;;;5075808;28;19928;-69
2023/12/29 02:35:52;;;;;;;;;;;3.80;99.90;;;;;;5075608;28;19925;-69
2023/12/29 02:38:19;;;;;;;;;;;3.80;99.90;;;;;;5075707;28;19924;-69
2023/12/29 02:40:46;;;;;;;;;;;3.80;99.90;;;;;;5075291;28;19925;-69
2023/12/29 02:43:14;;;;;;;;;;;3.80;99.90;;;;;;5075629;28;19936;-71
2023/12/29 02:45:41;;;;;;;;;;;3.90;99.90;;;;;;5075367;28;19932;-71
2023/12/29 02:48:07;;;;;;;;;;;3.90;99.90;;;;;;5075263;28;19924;-69
2023/12/29 02:50:34;;;;;;;;;;;3.90;99.90;;;;;;5075038;28;20019;-69
2023/12/29 02:53:01;;;;;;;;;;;3.90;99.90;;;;;;5096039;23;19924;-74
2023/12/29 02:55:27;;;;;;;;;;;3.90;99.90;;;;;;5075031;28;19932;-74
2023/12/29 02:57:54;;;;;;;;;;;3.90;99.90;;;;;;5074980;28;19971;-74
2023/12/29 03:00:22;;;;;;;;;;;4.00;99.90;;;;;;5074965;28;19928;-74
2023/12/29 03:02:48;;;;;;;;;;;4.00;99.90;;;;;;5074727;28;19925;-74
2023/12/29 03:05:15;;;;;;;;;;;4.10;99.90;;;;;;5074741;28;20293;-74
2023/12/29 03:07:41;;;;;;;;;;;4.10;99.90;;;;;;5074720;28;19924;-75
2023/12/29 03:10:08;;;;;;;;;;;4.10;99.90;;;;;;5074664;28;19929;-75
2023/12/29 03:12:35;;;;;;;;;;;4.10;99.90;;;;;;5074291;28;20324;-75
2023/12/29 03:15:02;;;;;;;;;;;4.10;99.90;;;;;;5074586;28;19932;-75
2023/12/29 03:17:30;;;;;;;;;;;4.10;99.90;;;;;;5074583;28;19925;-75
2023/12/29 03:19:56;;;;;;;;;;;4.20;99.90;;;;;;5073802;28;19924;-74
2023/12/29 03:22:23;;;;;;;;;;;4.20;99.90;;;;;;5075133;28;19924;-74
2023/12/29 03:24:49;;;;;;;;;;;4.20;99.90;;;;;;5074463;28;19932;-74
2023/12/29 03:27:16;;;;;;;;;;;4.20;99.90;;;;;;5074353;28;19925;-74
2023/12/29 03:29:42;;;;;;;;;;;4.20;99.90;;;;;;5074231;28;19928;-74
2023/12/29 03:32:09;;;;;;;;;;;4.30;99.90;;;;;;5073947;28;20297;-75
2023/12/29 03:34:37;;;;;;;;;;;4.30;99.90;;;;;;5074258;28;19932;-74
2023/12/29 03:37:03;;;;;;;;;;;4.30;99.90;;;;;;5074294;28;19932;-75
2023/12/29 03:39:30;;;;;;;;;;;4.40;99.90;;;;;;5073921;28;20317;-75
2023/12/29 03:41:57;;;;;;;;;;;4.40;99.90;;;;;;5074251;28;19971;-75
2023/12/29 03:44:23;;;;;;;;;;;4.40;99.90;;;;;;5074195;28;20339;-75
2023/12/29 03:46:51;;;;;;;;;;;4.50;99.90;;;;;;5074203;28;20019;-75
2023/12/29 03:49:17;;;;;;;;;;;4.50;99.90;;;;;;5074147;28;20286;-75
2023/12/29 03:51:46;;;;;;;;;;;4.50;99.90;;;;;;5074126;28;19924;-75
2023/12/29 03:54:12;;;;;;;;;;;4.60;99.90;;;;;;5074322;28;20014;-75
2023/12/29 03:56:39;;;;;;;;;;;4.70;99.90;;;;;;5074260;28;19950;-75
2023/12/29 03:59:05;;;;;;;;;;;4.80;99.90;;;;;;5074606;28;19934;-75
2023/12/29 04:01:34;;;;;;;;;;;4.80;99.90;;;;;;5073959;28;19932;-75
2023/12/29 04:04:00;;;;;;;;;;;4.90;99.90;;;;;;5074032;28;19935;-75
2023/12/29 04:06:27;;;;;;;;;;;5.00;99.90;;;;;;5073908;28;19924;-75
2023/12/29 04:08:55;;;;;;;;;;;5.00;99.90;;;;;;5073843;28;19924;-75
2023/12/29 04:11:21;;;;;;;;;;;5.20;99.90;;;;;;5073787;28;19929;-75
2023/12/29 04:13:48;;;;;;;;;;;5.30;99.90;;;;;;5073846;28;19925;-75
2023/12/29 04:16:15;;;;;;;;;;;5.40;99.90;;;;;;5073497;28;20404;-75
2023/12/29 04:18:41;;;;;;;;;;;5.50;99.90;;;;;;5073503;28;19929;-75
2023/12/29 04:21:09;;;;;;;;;;;5.70;99.90;;;;;;5073694;28;19932;-75
2023/12/29 04:23:35;;;;;;;;;;;5.80;99.90;;;;;;5073993;28;19980;-75
2023/12/29 04:26:03;;;;;;;;;;;5.80;99.90;;;;;;5073667;28;19932;-75
2023/12/29 04:28:30;;;;;;;;;;;5.90;99.90;;;;;;5073587;28;19931;-75
2023/12/29 04:30:56;;;;;;;;;;;6.00;99.90;;;;;;5076275;28;19932;-75
2023/12/29 04:33:23;;;;;;;;;;;6.10;99.90;;;;;;5077711;28;19925;-75
2023/12/29 04:35:49;;;;;;;;;;;6.10;99.90;;;;;;5077686;28;19947;-74
2023/12/29 04:38:18;;;;;;;;;;;6.20;99.90;;;;;;5077797;28;19931;-74
2023/12/29 04:40:45;;;;;;;;;;;6.20;99.90;;;;;;5077834;28;19983;-75
2023/12/29 04:43:13;;;;;;;;;;;6.20;99.90;;;;;;5077509;28;20381;-75
2023/12/29 04:45:39;;;;;;;;;;;6.20;99.90;;;;;;5077588;28;19929;-75
2023/12/29 04:48:06;;;;;;;;;;;6.20;99.90;;;;;;5077473;28;19929;-75
2023/12/29 04:50:33;;;;;;;;;;;6.30;99.90;;;;;;5077519;28;19932;-73
2023/12/29 04:52:59;;;;;;;;;;;6.30;99.90;;;;;;5077122;28;19925;-75
2023/12/29 04:55:26;;;;;;;;;;;6.40;99.90;;;;;;5077411;28;19933;-76
2023/12/29 04:57:52;;;;;;;;;;;6.40;99.90;;;;;;5077319;28;19961;-74
2023/12/29 05:00:20;;;;;;;;;;;6.40;99.90;;;;;;5077229;28;19925;-74
2023/12/29 05:02:47;;;;;;;;;;;6.40;99.90;;;;;;5077061;28;19924;-75
2023/12/29 05:05:14;;;;;;;;;;;6.40;99.90;;;;;;5077329;28;19931;-75
2023/12/29 05:07:40;;;;;;;;;;;6.40;99.90;;;;;;5077143;28;19931;-74
2023/12/29 05:10:07;;;;;;;;;;;6.40;99.90;;;;;;5077018;28;19932;-74
2023/12/29 05:12:34;;;;;;;;;;;6.40;99.90;;;;;;5076551;28;20396;-74
2023/12/29 05:14:59;;;;;;;;;;;6.40;99.90;;;;;;5076926;28;19999;-74
2023/12/29 05:17:27;;;;;;;;;;;6.50;99.90;;;;;;5076981;28;19935;-74
2023/12/29 05:19:54;;;;;;;;;;;6.50;99.90;;;;;;5076830;28;19932;-73
2023/12/29 05:22:20;;;;;;;;;;;6.50;99.90;;;;;;5076730;28;19924;-74
2023/12/29 05:24:47;;;;;;;;;;;6.50;99.90;;;;;;5076701;28;20300;-74
2023/12/29 05:27:13;;;;;;;;;;;6.50;99.90;;;;;;5076484;28;20344;-74
2023/12/29 05:29:40;;;;;;;;;;;6.50;99.90;;;;;;5076709;28;19931;-74
2023/12/29 05:32:07;;;;;;;;;;;6.50;99.90;;;;;;5076963;28;19925;-74
2023/12/29 05:34:34;;;;;;;;;;;6.60;99.90;;;;;;5076568;28;20279;-74
2023/12/29 05:37:01;;;;;;;;;;;6.50;99.90;;;;;;5077669;28;19928;-74
2023/12/29 05:39:29;;;;;;;;;;;6.50;99.90;;;;;;5077877;28;19924;-74
2023/12/29 05:41:55;;;;;;;;;;;6.60;99.90;;;;;;5076078;28;19925;-74
2023/12/29 05:44:22;;;;;;;;;;;6.60;99.90;;;;;;5076957;28;19932;-74
2023/12/29 05:46:48;;;;;;;;;;;6.60;99.90;;;;;;5076142;28;20313;-74
2023/12/29 05:49:15;;;;;;;;;;;6.60;99.90;;;;;;5076424;28;19932;-74
2023/12/29 05:51:43;;;;;;;;;;;6.50;99.90;;;;;;5075941;28;19932;-74
2023/12/29 05:54:10;;;;;;;;;;;6.50;99.90;;;;;;5076255;28;20358;-74
2023/12/29 05:56:36;;;;;;;;;;;6.50;99.90;;;;;;5076148;28;20385;-74
2023/12/29 05:59:03;;;;;;;;;;;6.50;99.90;;;;;;5076164;28;19929;-74
2023/12/29 06:01:29;;;;;;;;;;;6.50;99.90;;;;;;5076172;28;19925;-74
2023/12/29 06:03:56;;;;;;;;;;;6.50;99.90;;;;;;5076067;28;19931;-74
2023/12/29 06:06:22;;;;;;;;;;;6.40;99.90;;;;;;5075905;28;19932;-74
2023/12/29 06:08:50;;;;;;;;;;;6.40;99.90;;;;;;5075867;28;19925;-74
2023/12/29 06:11:17;;;;;;;;;;;6.30;99.90;;;;;;5075842;28;19933;-75
2023/12/29 06:13:43;;;;;;;;;;;6.20;99.90;;;;;;5075903;28;19924;-75
2023/12/29 06:16:10;;;;;;;;;;;6.10;99.90;;;;;;5075954;28;19950;-74
2023/12/29 06:18:37;;;;;;;;;;;6.00;99.90;;;;;;5075777;28;19932;-74
2023/12/29 06:21:03;;;;;;;;;;;5.90;99.90;;;;;;5075638;28;19925;-74
2023/12/29 06:23:30;;;;;;;;;;;5.80;99.90;;;;;;5075781;28;19947;-74
2023/12/29 06:25:58;;;;;;;;;;;5.80;99.90;;;;;;5075688;28;20401;-74
2023/12/29 06:28:24;;;;;;;;;;;5.60;99.90;;;;;;5076174;28;20400;-74
2023/12/29 06:30:51;;;;;;;;;;;5.50;99.90;;;;;;5076225;28;20042;-74
2023/12/29 06:33:20;;;;;;;;;;;5.40;99.90;;;;;;5075599;28;19924;-74
2023/12/29 06:35:47;;;;;;;;;;;5.30;99.90;;;;;;5075343;28;20373;-74
2023/12/29 06:38:14;;;;;;;;;;;5.20;99.90;;;;;;5075806;28;19925;-74
2023/12/29 06:40:40;;;;;;;;;;;5.10;99.90;;;;;;5074983;28;20016;-74
2023/12/29 06:43:08;;;;;;;;;;;5.10;99.90;;;;;;5074929;28;20400;-74
2023/12/29 06:45:35;;;;;;;;;;;5.00;99.90;;;;;;5075111;28;19932;-74
2023/12/29 06:48:01;;;;;;;;;;;4.90;99.90;;;;;;5075168;28;19925;-74
2023/12/29 06:50:28;;;;;;;;;;;4.80;99.90;;;;;;5075828;28;19924;-73
2023/12/29 06:52:55;;;;;;;;;;;4.70;99.90;;;;;;5074840;28;19925;-73
2023/12/29 06:55:21;;;;;;;;;;;4.60;99.90;;;;;;5075005;28;19925;-73
2023/12/29 06:57:48;;;;;;;;;;;4.50;99.90;;;;;;5074936;28;19924;-73
2023/12/29 07:00:16;;;;;;;;;;;4.50;99.90;;;;;;5074853;28;19947;-73
2023/12/29 07:02:42;;;;;;;;;;;4.60;99.90;;;;;;5074732;28;19925;-73
2023/12/29 07:05:09;;;;;;;;;;;4.60;99.90;;;;;;5074766;28;19925;-73
2023/12/29 07:07:35;;;;;;;;;;;4.60;99.90;;;;;;5074673;28;19932;-73
2023/12/29 07:10:03;;;;;;;;;;;4.60;99.90;;;;;;5074310;28;20274;-73
2023/12/29 07:12:30;;;;;;;;;;;4.70;99.90;;;;;;5074564;28;19978;-73
2023/12/29 07:14:56;;;;;;;;;;;4.70;99.90;;;;;;5074455;28;19924;-73
2023/12/29 07:17:24;;;;;;;;;;;4.70;99.90;;;;;;5074532;28;19935;-73
2023/12/29 07:19:51;;;;;;;;;;;4.80;99.90;;;;;;5074501;28;19924;-73
2023/12/29 07:22:17;;;;;;;;;;;4.90;99.90;;;;;;5074484;28;19932;-73
2023/12/29 07:24:44;;;;;;;;;;;5.00;99.90;;;;;;5074419;28;19924;-73
2023/12/29 07:27:11;;;;;;;;;;;5.00;99.90;;;;;;5074362;28;19978;-73
2023/12/29 07:29:37;;;;;;;;;;;5.10;99.90;;;;;;5074231;28;19924;-73
2023/12/29 07:32:05;;;;;;;;;;;5.20;99.90;;;;;;5074261;28;19931;-73
2023/12/29 07:34:33;;;;;;;;;;;5.20;99.90;;;;;;5074243;28;19924;-73
2023/12/29 07:36:59;;;;;;;;;;;5.20;99.90;;;;;;5074250;28;19931;-73
2023/12/29 07:39:26;;;;;;;;;;;5.30;99.90;;;;;;5076399;28;19924;-73
2023/12/29 07:41:53;;;;;;;;;;;5.30;99.90;;;;;;5077079;28;19925;-73
2023/12/29 07:44:20;;;;;;;;;;;5.30;99.90;;;;;;5077040;28;19925;-73
2023/12/29 07:46:46;;;;;;;;;;;5.30;99.90;;;;;;5077548;28;19963;-73
2023/12/29 07:49:13;;;;;;;;;;;5.30;99.90;;;;;;5077538;28;19931;-73
2023/12/29 07:51:41;;;;;;;;;;;5.30;99.90;;;;;;5077437;28;19925;-73
2023/12/29 07:54:08;;;;;;;;;;;5.60;99.90;;;;;;5076944;28;20015;-73
2023/12/29 07:56:35;;;;;;;;;;;5.40;99.90;;;;;;5075731;28;19924;-73
2023/12/29 07:59:02;;;;;;;;;;;5.50;99.90;;;;;;5075195;28;20275;-73
2023/12/29 08:01:29;;;;;;;;;;;5.50;99.90;;;;;;5075311;28;19924;-74
2023/12/29 08:03:56;;;;;;;;;;;5.50;99.90;;;;;;5075659;28;19931;-73
2023/12/29 08:06:23;;;;;;;;;;;5.50;99.90;;;;;;5074558;28;19924;-73
2023/12/29 08:08:51;;;;;;;;;;;5.60;99.90;;;;;;5074272;28;19932;-72
2023/12/29 08:11:17;;;;;;;;;;;5.60;99.90;;;;;;5074104;28;19928;-72
2023/12/29 08:13:44;;;;;;;;;;;5.60;99.90;;;;;;5073545;28;20393;-72
2023/12/29 08:16:11;;;;;;;;;;;5.60;99.90;;;;;;5073820;28;19928;-73
2023/12/29 08:18:37;;;;;;;;;;;5.70;99.90;;;;;;5073713;28;19924;-73
2023/12/29 08:21:04;;;;;;;;;;;5.80;99.90;;;;;;5073446;28;19935;-73
2023/12/29 08:23:30;;;;;;;;;;;5.70;99.90;;;;;;5073710;28;19924;-74
2023/12/29 08:26:00;;;;;;;;;;;5.80;99.90;;;;;;5073735;28;19924;-74
2023/12/29 08:28:26;;;;;;;;;;;5.80;99.90;;;;;;5073673;28;20380;-74
2023/12/29 08:30:53;;;;;;;;;;;5.80;99.90;;;;;;5073848;28;19924;-74
2023/12/29 08:33:19;;;;;;;;;;;5.90;99.90;;;;;;5073651;28;19924;-74
2023/12/29 08:35:46;;;;;;;;;;;6.00;99.90;;;;;;5073727;28;19932;-74
2023/12/29 08:38:13;;;;;;;;;;;6.00;99.90;;;;;;5073740;28;19977;-74
2023/12/29 08:40:39;;;;;;;;;;;6.10;99.90;;;;;;5073987;28;19925;-72
2023/12/29 08:43:07;;;;;;;;;;;6.10;99.90;;;;;;5073507;28;19924;-73
2023/12/29 08:45:35;;;;;;;;;;;6.20;99.90;;;;;;5073309;28;19928;-73
2023/12/29 08:48:01;;;;;;;;;;;6.30;99.90;;;;;;5073576;28;19932;-71
2023/12/29 08:50:28;;;;;;;;;;;6.30;99.90;;;;;;5073082;28;19932;-72
2023/12/29 08:52:55;;;;;;;;;;;6.40;99.90;;;;;;5094339;23;19931;-74
2023/12/29 08:55:21;;;;;;;;;;;6.50;99.90;;;;;;5074281;28;19924;-73
2023/12/29 08:57:48;;;;;;;;;;;6.60;99.90;;;;;;5074500;28;19967;-74
2023/12/29 09:00:16;;;;;;;;;;;6.80;99.90;;;;;;5073559;28;19925;-73
2023/12/29 09:02:43;;;;;;;;;;;6.80;99.90;;;;;;5073387;28;20393;-73
2023/12/29 09:05:10;;;;;;;;;;;6.80;99.90;;;;;;5074073;28;19925;-74
2023/12/29 09:07:36;;;;;;;;;;;6.80;99.90;;;;;;5073967;28;19929;-74
2023/12/29 09:10:07;;;;;;;;;;;6.80;99.90;;;;;;5073676;28;19936;-75
2023/12/29 09:12:33;;;;;;;;;;;6.90;99.90;;;;;;5075414;28;19983;-73
2023/12/29 09:15:00;;;;;;;;;;;6.90;99.90;;;;;;5078897;28;20297;-73
2023/12/29 09:17:28;;;;;;;;;;;6.90;99.90;;;;;;5080247;28;19935;-74
2023/12/29 09:19:54;;;;;;;;;;;6.90;99.90;;;;;;5077011;28;19925;-73
2023/12/29 09:22:21;;;;;;;;;;;6.90;99.90;;;;;;5077559;28;19932;-73
2023/12/29 09:24:47;;;;;;;;;;;6.90;99.90;;;;;;5077209;28;19928;-74
2023/12/29 09:27:14;;;;;;;;;;;6.90;99.90;;;;;;5077174;28;19925;-74
2023/12/29 09:29:40;;;;;;;;;;;7.00;99.90;;;;;;5077001;28;19931;-74
2023/12/29 09:32:07;;;;;;;;;;;7.00;99.90;;;;;;5077124;28;19925;-74
2023/12/29 09:34:35;;;;;;;;;;;7.00;99.90;;;;;;5077053;28;19928;-74
2023/12/29 09:37:01;;;;;;;;;;;7.10;99.90;;;;;;5076785;28;19947;-74
2023/12/29 09:39:28;;;;;;;;;;;7.10;99.90;;;;;;5076946;28;19932;-74
2023/12/29 09:42:00;;;;;;;;;;;7.20;99.90;;;;;;5076534;28;20458;-73
2023/12/29 09:44:28;;;;;;;;;;;7.30;99.90;;;;;;5076695;28;19951;-73
2023/12/29 09:46:55;;;;;;;;;;;7.30;99.90;;;;;;5076457;28;19967;-74
2023/12/29 09:49:22;;;;;;;;;;;7.30;99.90;;;;;;5076753;28;19925;-75
2023/12/29 09:51:50;;;;;;;;;;;7.30;99.90;;;;;;5076306;28;19924;-74
2023/12/29 09:54:17;;;;;;;;;;;7.40;99.90;;;;;;5076770;28;19951;-74
2023/12/29 09:56:44;;;;;;;;;;;7.40;99.90;;;;;;5077880;28;19935;-74
2023/12/29 09:59:11;;;;;;;;;;;7.40;99.90;;;;;;5082069;28;19928;-74
2023/12/29 10:01:38;;;;;;;;;;;7.50;99.90;;;;;;5076925;28;19929;-74
2023/12/29 10:04:04;;;;;;;;;;;7.60;99.90;;;;;;5076395;28;19931;-74
2023/12/29 10:06:34;;;;;;;;;;;7.80;99.90;;;;;;5076304;28;19929;-75
2023/12/29 10:09:04;;;;;;;;;;;7.90;99.90;;;;;;5076202;28;19938;-74
2023/12/29 10:11:32;;;;;;;;;;;8.00;99.90;;;;;;5075868;28;19978;-74
2023/12/29 10:14:00;;;;;;;;;;;8.00;99.90;;;;;;5075988;28;19931;-74
2023/12/29 10:16:29;;;;;;;;;;;8.00;99.90;;;;;;5075958;28;19929;-74
2023/12/29 10:18:59;;;;;;;;;;;8.00;99.90;;;;;;5076042;28;19932;-74
2023/12/29 10:21:28;;;;;;;;;;;8.10;99.90;;;;;;5076580;28;19928;-74
2023/12/29 10:23:57;;;;;;;;;;;8.10;99.90;;;;;;5075967;28;19925;-74
2023/12/29 10:26:26;;;;;;;;;;;8.30;99.90;;;;;;5075714;28;19924;-74
2023/12/29 10:28:53;;;;;;;;;;;8.30;99.90;;;;;;5075438;28;19924;-74
2023/12/29 10:31:19;;;;;;;;;;;8.30;99.90;;;;;;5075802;28;20296;-74
2023/12/29 10:33:50;;;;;;;;;;;8.30;99.90;;;;;;5075287;28;20389;-74
2023/12/29 10:36:17;;;;;;;;;;;8.20;99.90;;;;;;5075613;28;19924;-74
2023/12/29 10:38:44;;;;;;;;;;;8.10;99.90;;;;;;5075061;28;19928;-74
2023/12/29 10:41:12;;;;;;;;;;;8.10;99.90;;;;;;5075042;28;20385;-72
2023/12/29 10:43:40;;;;;;;;;;;8.00;99.90;;;;;;5075228;28;19970;-72
2023/12/29 10:46:07;;;;;;;;;;;8.00;99.90;;;;;;5075116;28;20415;-72
2023/12/29 10:48:33;;;;;;;;;;;8.00;99.90;;;;;;5075301;28;19972;-73
2023/12/29 10:51:02;;;;;;;;;;;8.00;99.90;;;;;;5075108;28;19924;-72
2023/12/29 10:53:29;;;;;;;;;;;8.00;99.90;;;;;;5075108;28;19928;-73
2023/12/29 10:55:55;;;;;;;;;;;8.10;99.90;;;;;;5075314;28;19967;-72
2023/12/29 10:58:22;;;;;;;;;;;8.10;99.90;;;;;;5075352;28;19924;-72
2023/12/29 11:00:50;;;;;;;;;;;8.30;99.90;;;;;;5075018;28;19924;-72
2023/12/29 11:03:17;;;;;;;;;;;8.30;99.90;;;;;;5075206;28;19925;-72
2023/12/29 11:05:44;;;;;;;;;;;8.30;99.90;;;;;;5075067;28;19968;-72
2023/12/29 11:08:15;;;;;;;;;;;8.40;99.90;;;;;;5075021;28;19925;-72
2023/12/29 11:10:42;;;;;;;;;;;8.50;99.90;;;;;;5074874;28;19932;-72
2023/12/29 11:13:09;;;;;;;;;;;8.60;99.90;;;;;;5074763;28;19947;-72
2023/12/29 11:15:35;;;;;;;;;;;8.70;99.90;;;;;;5074688;28;19931;-72
2023/12/29 11:18:05;;;;;;;;;;;9.00;99.90;;;;;;5074672;28;19931;-72
2023/12/29 11:20:31;;;;;;;;;;;9.00;99.90;;;;;;5074601;28;19931;-72
2023/12/29 11:22:58;;;;;;;;;;;9.10;99.90;;;;;;5073999;28;20313;-72
2023/12/29 11:25:24;;;;;;;;;;;9.20;99.90;;;;;;5074875;28;19925;-72
2023/12/29 11:27:51;;;;;;;;;;;9.30;99.90;;;;;;5074394;28;19924;-74
2023/12/29 11:30:18;;;;;;;;;;;9.30;99.90;;;;;;5074079;28;19929;-74
2023/12/29 11:32:48;;;;;;;;;;;9.40;99.90;;;;;;5074262;28;19925;-74
2023/12/29 11:35:18;;;;;;;;;;;9.40;99.90;;;;;;5074316;28;19932;-74
2023/12/29 11:37:57;;;;;;;;;;;9.50;99.90;;;;;;5075501;28;19928;-74
2023/12/29 11:40:26;;;;;;;;;;;9.60;99.90;;;;;;5074380;28;19951;-74
2023/12/29 11:42:54;;;;;;;;;;;9.60;99.90;;;;;;5074571;28;20408;-74
2023/12/29 11:45:24;;;;;;;;;;;9.70;99.90;;;;;;5074541;28;19931;-74
2023/12/29 11:47:55;;;;;;;;;;;9.70;99.90;;;;;;5074233;28;19925;-74
2023/12/29 11:50:30;;;;;;;;;;;9.70;99.90;;;;;;5074876;28;19924;-74
2023/12/29 11:52:57;;;;;;;;;;;9.70;99.90;;;;;;5074731;28;20351;-74
2023/12/29 11:55:28;;;;;;;;;;;9.60;99.90;;;;;;5074921;28;19928;-74
2023/12/29 11:57:59;;;;;;;;;;;9.60;99.90;;;;;;5074920;28;19931;-74
2023/12/29 12:00:44;;;;;;;;;;;9.60;99.90;;;;;;5073722;28;21610;-74
2023/12/29 12:03:17;;;;;;;;;;;9.50;99.90;;;;;;5074419;28;20289;-74
2023/12/29 12:05:49;;;;;;;;;;;9.50;99.90;;;;;;5074666;28;20301;-74
2023/12/29 12:08:30;;;;;;;;;;;9.40;99.90;;;;;;5076018;28;19974;-74
2023/12/29 12:10:57;;;;;;;;;;;9.50;99.90;;;;;;5076024;28;20038;-75
2023/12/29 12:13:39;;;;;;;;;;;9.60;99.90;;;;;;5076564;28;20007;-74
2023/12/29 12:16:06;;;;;;;;;;;9.60;99.90;;;;;;5073093;28;19925;-74
2023/12/29 12:18:33;;;;;;;;;;;9.60;99.90;;;;;;5075249;28;19924;-74
2023/12/29 12:21:01;;;;;;;;;;;9.60;99.90;;;;;;5073840;28;19975;-74
2023/12/29 12:23:32;;;;;;;;;;;9.60;99.90;;;;;;5074549;28;19928;-74
2023/12/29 12:25:59;;;;;;;;;;;9.70;99.90;;;;;;5074525;28;19947;-73
2023/12/29 12:28:26;;;;;;;;;;;9.60;99.90;;;;;;5075333;28;19931;-73
2023/12/29 12:30:54;;;;;;;;;;;9.60;99.90;;;;;;5074709;28;19974;-73
2023/12/29 12:33:21;;;;;;;;;;;9.70;99.90;;;;;;5075905;28;19924;-73
2023/12/29 12:35:59;;;;;;;;;;;9.70;99.90;;;;;;5075898;28;19924;-74
2023/12/29 12:38:30;;;;;;;;;;;9.70;99.90;;;;;;5081023;28;19929;-74
2023/12/29 12:40:57;;;;;;;;;;;9.70;99.90;;;;;;5082853;28;20300;-74
2023/12/29 12:43:26;;;;;;;;;;;9.70;99.90;;;;;;5083038;28;19931;-74
2023/12/29 12:45:54;;;;;;;;;;;9.60;99.90;;;;;;5075217;28;20361;-73
2023/12/29 12:48:23;;;;;;;;;;;9.70;99.90;;;;;;5074835;28;19925;-74
2023/12/29 12:50:50;;;;;;;;;;;9.60;99.90;;;;;;5074066;28;20022;-74
2023/12/29 12:53:20;;;;;;;;;;;9.60;99.90;;;;;;5078177;28;20274;-74
2023/12/29 12:55:49;;;;;;;;;;;9.60;99.90;;;;;;5079515;28;19925;-74
2023/12/29 12:58:20;;;;;;;;;;;9.60;99.90;;;;;;5079535;28;20019;-74
2023/12/29 13:00:47;;;;;;;;;;;9.60;99.90;;;;;;5079548;28;19959;-76
2023/12/29 13:03:17;;;;;;;;;;;9.60;99.90;;;;;;5080367;28;19924;-74
2023/12/29 13:05:49;;;;;;;;;;;9.60;99.90;;;;;;5079557;28;19929;-75
2023/12/29 13:08:15;;;;;;;;;;;9.70;99.90;;;;;;5079305;28;19924;-76
2023/12/29 13:10:43;;;;;;;;;;;9.80;99.90;;;;;;5078875;28;19924;-75
2023/12/29 13:13:11;;;;;;;;;;;9.80;99.90;;;;;;5078854;28;19928;-76
2023/12/29 13:15:45;;;;;;;;;;;9.80;99.90;;;;;;5080431;28;19932;-73
2023/12/29 13:18:12;;;;;;;;;;;9.80;99.90;;;;;;5079033;28;19932;-73
2023/12/29 13:20:44;;;;;;;;;;;9.80;99.90;;;;;;5078208;28;19985;-73
2023/12/29 13:23:10;;;;;;;;;;;9.80;99.90;;;;;;5078548;28;19925;-73
2023/12/29 13:25:39;;;;;;;;;;;9.70;99.90;;;;;;5078399;28;19955;-72
2023/12/29 13:28:06;;;;;;;;;;;9.70;99.90;;;;;;5077826;28;20297;-72
2023/12/29 13:30:34;;;;;;;;;;;9.70;99.90;;;;;;5078326;28;19925;-71
2023/12/29 13:33:07;;;;;;;;;;;9.70;99.90;;;;;;5077862;28;19932;-71
2023/12/29 13:35:36;;;;;;;;;;;9.70;99.90;;;;;;5077831;28;19924;-71
2023/12/29 13:38:06;;;;;;;;;;;9.60;99.90;;;;;;5077585;28;19925;-72
2023/12/29 13:40:36;;;;;;;;;;;9.60;99.90;;;;;;5077712;28;19925;-73
2023/12/29 13:43:04;;;;;;;;;;;9.70;99.90;;;;;;5077894;28;19924;-72
2023/12/29 13:45:30;;;;;;;;;;;9.60;99.90;;;;;;5077983;28;19978;-73
2023/12/29 13:47:59;;;;;;;;;;;9.60;99.90;;;;;;5077885;28;19932;-73
2023/12/29 13:50:26;;;;;;;;;;;9.50;99.90;;;;;;5077631;28;19925;-72
2023/12/29 13:52:53;;;;;;;;;;;9.50;99.90;;;;;;5077849;28;19924;-71
2023/12/29 13:55:23;;;;;;;;;;;9.60;99.90;;;;;;5078358;28;20393;-71
2023/12/29 13:57:50;;;;;;;;;;;9.50;99.90;;;;;;5077241;28;20417;-71
2023/12/29 14:00:17;;;;;;;;;;;9.50;99.90;;;;;;5076735;28;19924;-72
2023/12/29 14:02:45;;;;;;;;;;;9.40;99.90;;;;;;5075592;28;20405;-72
2023/12/29 14:05:15;;;;;;;;;;;9.40;99.90;;;;;;5076509;28;19931;-72
2023/12/29 14:07:45;;;;;;;;;;;9.50;99.90;;;;;;5076193;28;19924;-72
2023/12/29 14:10:12;;;;;;;;;;;9.40;99.90;;;;;;5076301;28;19924;-71
2023/12/29 14:12:39;;;;;;;;;;;9.40;99.90;;;;;;5075958;28;19924;-72
2023/12/29 14:15:09;;;;;;;;;;;9.40;99.90;;;;;;5076059;28;19924;-72
2023/12/29 14:17:37;;;;;;;;;;;9.50;99.90;;;;;;5075635;28;19932;-72
2023/12/29 14:20:06;;;;;;;;;;;9.40;99.90;;;;;;5075443;28;20347;-72
2023/12/29 14:22:34;;;;;;;;;;;9.40;99.90;;;;;;5075521;28;20019;-73
2023/12/29 14:25:02;;;;;;;;;;;9.40;99.90;;;;;;5075774;28;19928;-72
2023/12/29 14:27:28;;;;;;;;;;;9.40;99.90;;;;;;5075773;28;19925;-72
2023/12/29 14:29:55;;;;;;;;;;;9.40;99.90;;;;;;5075741;28;19924;-72
2023/12/29 14:32:22;;;;;;;;;;;9.30;99.90;;;;;;5075989;28;19931;-72